Time;durP1;ratioP1;P1;durP2;ratioP2;P2;SDS_P1;SDS_P2;PMS_P1;PMS_P2;Temp;Humidity;BMP_temperature;BMP_pressure;BME280_temperature;BME280_humidity;BME280_pressure;Samples;Min_cycle;Max_cycle;Signal;HPM_P1;HPM_P2
2022/09/05 00:02:38;;;;;;;4.43;2.50;;;;;;;;;;4951725;28;20237;-78
2022/09/05 00:05:35;;;;;;;7.83;2.40;;;;;;;;;;4951567;28;20729;-78
2022/09/05 00:08:05;;;;;;;4.67;2.67;;;;;;;;;;4927587;29;20283;-79
2022/09/05 00:10:39;;;;;;;5.40;3.00;;;;;;;;;;4946321;28;20202;-79
2022/09/05 00:13:11;;;;;;;5.17;2.50;;;;;;;;;;4952209;28;20206;-79
2022/09/05 00:15:42;;;;;;;4.27;2.70;;;;;;;;;;4953312;28;20210;-80
2022/09/05 00:18:25;;;;;;;4.03;2.73;;;;;;;;;;4948632;28;20325;-79
2022/09/05 00:20:56;;;;;;;6.87;2.67;;;;;;;;;;4953029;28;20684;-80
2022/09/05 00:23:33;;;;;;;5.10;3.13;;;;;;;;;;4949532;28;20237;-79
2022/09/05 00:26:06;;;;;;;4.17;2.80;;;;;;;;;;4956078;28;20218;-80
2022/09/05 00:28:42;;;;;;;4.37;2.83;;;;;;;;;;4950453;28;20265;-79
2022/09/05 00:31:24;;;;;;;4.70;2.70;;;;;;;;;;4950293;28;20210;-79
2022/09/05 00:33:57;;;;;;;5.70;2.87;;;;;;;;;;4952175;28;20210;-79
2022/09/05 00:36:28;;;;;;;5.47;3.23;;;;;;;;;;4952171;28;20262;-80
2022/09/05 00:38:59;;;;;;;4.17;3.10;;;;;;;;;;4950673;28;20225;-80
2022/09/05 00:41:27;;;;;;;9.27;3.20;;;;;;;;;;4954312;28;20233;-80
2022/09/05 00:43:56;;;;;;;3.70;2.90;;;;;;;;;;4948452;28;20207;-80
2022/09/05 00:46:25;;;;;;;6.90;3.30;;;;;;;;;;4950137;28;20214;-80
2022/09/05 00:48:55;;;;;;;5.20;3.10;;;;;;;;;;4950713;29;20238;-80
2022/09/05 00:51:30;;;;;;;4.00;3.07;;;;;;;;;;4951475;28;20234;-80
2022/09/05 00:54:08;;;;;;;6.83;3.00;;;;;;;;;;4947381;29;20612;-80
2022/09/05 00:56:51;;;;;;;7.57;3.13;;;;;;;;;;4953699;28;20218;-80
2022/09/05 00:59:42;;;;;;;3.97;2.60;;;;;;;;;;4950855;28;20847;-80
2022/09/05 01:02:16;;;;;;;5.93;2.90;;;;;;;;;;4949826;28;20243;-80
2022/09/05 01:04:48;;;;;;;6.30;2.90;;;;;;;;;;4957156;28;20198;-79
2022/09/05 01:07:27;;;;;;;4.70;3.00;;;;;;;;;;4952971;28;20632;-79
2022/09/05 01:10:02;;;;;;;3.77;2.93;;;;;;;;;;4952107;28;20269;-80
2022/09/05 01:12:41;;;;;;;6.30;3.27;;;;;;;;;;4952677;28;20207;-80
2022/09/05 01:15:18;;;;;;;5.80;3.17;;;;;;;;;;4952034;28;20237;-79
2022/09/05 01:17:51;;;;;;;5.00;3.00;;;;;;;;;;4952648;28;20285;-80
2022/09/05 01:20:45;;;;;;;5.57;3.00;;;;;;;;;;4953625;28;20699;-80
2022/09/05 01:23:27;;;;;;;3.47;2.63;;;;;;;;;;4952682;28;20214;-80
2022/09/05 01:26:08;;;;;;;5.50;3.10;;;;;;;;;;4953367;28;20230;-80
2022/09/05 01:28:42;;;;;;;4.37;3.07;;;;;;;;;;4954371;28;20210;-80
2022/09/05 01:31:12;;;;;;;4.57;2.87;;;;;;;;;;4950778;28;20210;-80
2022/09/05 01:33:44;;;;;;;4.93;3.10;;;;;;;;;;4954428;28;20587;-80
2022/09/05 01:36:17;;;;;;;5.17;3.30;;;;;;;;;;4953136;28;20203;-80
2022/09/05 01:38:49;;;;;;;4.27;3.00;;;;;;;;;;4951044;28;20340;-79
2022/09/05 01:41:20;;;;;;;4.00;2.83;;;;;;;;;;4950396;28;20234;-80
2022/09/05 01:44:12;;;;;;;4.03;2.63;;;;;;;;;;4953151;28;20206;-81
2022/09/05 01:46:44;;;;;;;5.07;3.13;;;;;;;;;;4954319;28;20297;-80
2022/09/05 01:49:19;;;;;;;5.77;3.37;;;;;;;;;;4949645;28;20225;-80
2022/09/05 01:51:53;;;;;;;4.37;3.20;;;;;;;;;;4952707;28;20205;-80
2022/09/05 01:54:24;;;;;;;5.67;3.17;;;;;;;;;;4949556;28;20290;-81
2022/09/05 01:56:56;;;;;;;4.30;2.90;;;;;;;;;;4954483;28;20249;-80
2022/09/05 01:59:29;;;;;;;4.60;3.10;;;;;;;;;;4953137;28;20242;-80
2022/09/05 02:02:06;;;;;;;8.90;3.40;;;;;;;;;;4950475;28;20240;-81
2022/09/05 02:04:43;;;;;;;4.77;3.00;;;;;;;;;;4953453;28;20207;-81
2022/09/05 02:07:17;;;;;;;4.17;2.97;;;;;;;;;;4951432;28;20250;-81
2022/09/05 02:09:54;;;;;;;7.77;3.20;;;;;;;;;;4951026;28;20222;-81
2022/09/05 02:12:23;;;;;;;7.10;2.90;;;;;;;;;;4950868;28;20195;-80
2022/09/05 02:14:57;;;;;;;5.73;3.37;;;;;;;;;;4950027;29;20228;-81
2022/09/05 02:17:27;;;;;;;6.47;3.00;;;;;;;;;;4951392;28;20253;-81
2022/09/05 02:19:57;;;;;;;4.47;2.80;;;;;;;;;;4953315;28;20265;-81
2022/09/05 02:22:28;;;;;;;8.13;3.47;;;;;;;;;;4953583;28;20246;-80
2022/09/05 02:25:02;;;;;;;4.77;3.17;;;;;;;;;;4951692;28;20269;-80
2022/09/05 02:27:32;;;;;;;5.63;3.50;;;;;;;;;;4953894;28;20879;-81
2022/09/05 02:30:07;;;;;;;6.40;3.67;;;;;;;;;;4954439;28;20226;-80
2022/09/05 02:32:39;;;;;;;8.13;3.60;;;;;;;;;;4952493;28;20661;-80
2022/09/05 02:35:15;;;;;;;4.93;3.40;;;;;;;;;;4950998;28;20296;-80
2022/09/05 02:37:45;;;;;;;5.00;3.43;;;;;;;;;;4957552;28;20261;-80
2022/09/05 02:40:17;;;;;;;5.03;3.60;;;;;;;;;;4955420;28;20210;-79
2022/09/05 02:42:48;;;;;;;5.77;3.70;;;;;;;;;;4954843;28;20229;-80
2022/09/05 02:45:24;;;;;;;5.80;3.00;;;;;;;;;;4953317;28;20230;-80
2022/09/05 02:47:55;;;;;;;5.33;3.60;;;;;;;;;;4950551;28;20811;-80
2022/09/05 02:50:28;;;;;;;5.33;3.63;;;;;;;;;;4949871;28;20237;-80
2022/09/05 02:52:56;;;;;;;6.80;3.60;;;;;;;;;;4955294;28;20221;-81
2022/09/05 02:55:28;;;;;;;6.43;3.27;;;;;;;;;;4954128;28;20866;-80
2022/09/05 02:58:01;;;;;;;5.87;3.80;;;;;;;;;;4951097;28;20235;-79
2022/09/05 03:00:31;;;;;;;6.17;3.60;;;;;;;;;;4950760;28;20297;-80
2022/09/05 03:03:06;;;;;;;5.47;3.27;;;;;;;;;;4954222;28;20203;-80
2022/09/05 03:05:36;;;;;;;5.83;3.40;;;;;;;;;;4952019;28;20216;-79
2022/09/05 03:08:24;;;;;;;8.33;3.47;;;;;;;;;;4950432;28;20320;-79
2022/09/05 03:11:01;;;;;;;4.37;3.23;;;;;;;;;;4953525;28;20645;-78
2022/09/05 03:13:49;;;;;;;6.10;3.40;;;;;;;;;;4954189;28;20364;-78
2022/09/05 03:16:23;;;;;;;7.83;3.17;;;;;;;;;;4951203;28;20564;-79
2022/09/05 03:19:08;;;;;;;6.00;3.60;;;;;;;;;;4950580;28;20284;-79
2022/09/05 03:21:53;;;;;;;4.80;3.30;;;;;;;;;;4952346;28;20309;-79
2022/09/05 03:24:38;;;;;;;8.80;3.30;;;;;;;;;;4958236;28;20222;-79
2022/09/05 03:27:23;;;;;;;5.03;3.60;;;;;;;;;;4954623;28;20589;-80
2022/09/05 03:30:07;;;;;;;6.00;3.73;;;;;;;;;;4946713;28;20266;-79
2022/09/05 03:32:47;;;;;;;4.73;3.40;;;;;;;;;;4956973;28;20202;-80
2022/09/05 03:35:32;;;;;;;7.07;3.30;;;;;;;;;;4955238;28;20210;-80
2022/09/05 03:38:14;;;;;;;5.50;3.30;;;;;;;;;;4928788;28;20226;-80
2022/09/05 03:40:56;;;;;;;9.87;3.20;;;;;;;;;;4954419;28;20257;-80
2022/09/05 03:43:44;;;;;;;5.73;3.80;;;;;;;;;;4952255;28;20242;-80
2022/09/05 03:46:15;;;;;;;6.23;3.20;;;;;;;;;;4952189;28;20269;-80
2022/09/05 03:48:59;;;;;;;5.53;3.63;;;;;;;;;;4956541;28;20226;-80
2022/09/05 03:51:31;;;;;;;7.27;3.60;;;;;;;;;;4948351;28;20213;-80
2022/09/05 03:54:05;;;;;;;5.60;3.63;;;;;;;;;;4951704;28;20302;-80
2022/09/05 03:56:47;;;;;;;5.80;3.67;;;;;;;;;;4953822;28;20230;-78
2022/09/05 03:59:32;;;;;;;7.00;3.57;;;;;;;;;;4950275;28;20230;-80
2022/09/05 04:02:03;;;;;;;6.10;3.40;;;;;;;;;;4947133;28;20253;-80
2022/09/05 04:04:34;;;;;;;6.90;3.50;;;;;;;;;;4954180;28;20210;-80
2022/09/05 04:07:04;;;;;;;5.77;3.40;;;;;;;;;;4951306;28;20265;-80
2022/09/05 04:09:37;;;;;;;4.50;3.40;;;;;;;;;;4952809;28;20210;-80
2022/09/05 04:12:13;;;;;;;4.87;3.33;;;;;;;;;;4947774;28;20211;-79
2022/09/05 04:14:44;;;;;;;5.50;3.40;;;;;;;;;;4954502;28;20225;-80
2022/09/05 04:17:19;;;;;;;6.57;3.90;;;;;;;;;;4953972;28;20244;-80
2022/09/05 04:19:51;;;;;;;5.93;3.50;;;;;;;;;;4950845;28;20325;-80
2022/09/05 04:22:20;;;;;;;9.97;3.90;;;;;;;;;;4954277;28;20218;-80
2022/09/05 04:24:54;;;;;;;9.00;3.90;;;;;;;;;;4949574;28;20225;-80
2022/09/05 04:27:28;;;;;;;6.17;3.50;;;;;;;;;;4952065;28;20234;-80
2022/09/05 04:29:59;;;;;;;5.77;3.93;;;;;;;;;;4951327;28;20203;-80
2022/09/05 04:32:34;;;;;;;7.67;3.80;;;;;;;;;;4951903;28;20215;-80
2022/09/05 04:35:21;;;;;;;7.87;4.20;;;;;;;;;;4951434;28;20210;-80
2022/09/05 04:37:54;;;;;;;8.73;3.70;;;;;;;;;;4956554;28;20253;-80
2022/09/05 04:40:35;;;;;;;8.50;3.57;;;;;;;;;;4952002;28;20218;-80
2022/09/05 04:43:04;;;;;;;7.67;4.37;;;;;;;;;;4952605;28;20273;-79
2022/09/05 04:45:37;;;;;;;8.27;4.03;;;;;;;;;;4952550;28;20222;-79
2022/09/05 04:48:07;;;;;;;9.03;3.73;;;;;;;;;;4950543;28;20230;-80
2022/09/05 04:50:43;;;;;;;7.23;3.50;;;;;;;;;;4956442;28;20199;-80
2022/09/05 04:53:18;;;;;;;5.93;3.03;;;;;;;;;;4953302;28;20292;-80
2022/09/05 04:55:49;;;;;;;7.87;3.40;;;;;;;;;;4947715;28;20202;-79
2022/09/05 04:58:23;;;;;;;6.80;3.63;;;;;;;;;;4949570;28;20265;-80
2022/09/05 05:00:53;;;;;;;5.57;3.47;;;;;;;;;;4950266;28;20309;-80
2022/09/05 05:03:23;;;;;;;5.70;3.10;;;;;;;;;;4952047;28;20225;-79
2022/09/05 05:05:57;;;;;;;7.87;3.67;;;;;;;;;;4951368;28;20194;-79
2022/09/05 05:08:27;;;;;;;4.60;3.27;;;;;;;;;;4954055;28;20644;-80
2022/09/05 05:10:56;;;;;;;6.00;3.77;;;;;;;;;;4950479;28;20214;-80
2022/09/05 05:13:28;;;;;;;5.03;3.10;;;;;;;;;;4944658;28;20206;-80
2022/09/05 05:15:57;;;;;;;5.53;3.40;;;;;;;;;;4951771;28;20257;-80
2022/09/05 05:18:25;;;;;;;7.33;3.43;;;;;;;;;;4951995;28;20293;-79
2022/09/05 05:20:57;;;;;;;7.13;3.23;;;;;;;;;;4950379;28;20806;-80
2022/09/05 05:23:32;;;;;;;4.87;3.30;;;;;;;;;;4955693;28;20245;-79
2022/09/05 05:26:01;;;;;;;7.53;3.40;;;;;;;;;;4953914;28;20222;-79
2022/09/05 05:28:31;;;;;;;12.23;3.67;;;;;;;;;;4954714;28;20230;-79
2022/09/05 05:31:09;;;;;;;10.83;3.20;;;;;;;;;;4957433;28;20236;-79
2022/09/05 05:33:38;;;;;;;10.57;3.63;;;;;;;;;;4956003;28;20220;-79
2022/09/05 05:36:08;;;;;;;7.33;3.07;;;;;;;;;;4958487;28;20273;-79
2022/09/05 05:38:39;;;;;;;8.30;2.97;;;;;;;;;;4955417;28;20301;-79
2022/09/05 05:41:11;;;;;;;4.70;3.20;;;;;;;;;;4956486;28;20261;-79
2022/09/05 05:43:39;;;;;;;10.67;3.03;;;;;;;;;;4954756;28;20198;-79
2022/09/05 05:46:07;;;;;;;4.43;2.83;;;;;;;;;;4955840;28;20215;-79
2022/09/05 05:48:38;;;;;;;11.77;3.00;;;;;;;;;;4953423;28;20226;-78
2022/09/05 05:51:13;;;;;;;10.50;3.40;;;;;;;;;;4950660;28;20241;-80
2022/09/05 05:53:46;;;;;;;10.73;3.00;;;;;;;;;;4954754;28;20210;-79
2022/09/05 05:56:24;;;;;;;6.10;3.07;;;;;;;;;;4952780;28;20206;-78
2022/09/05 05:58:55;;;;;;;5.80;2.97;;;;;;;;;;4952190;28;20274;-80
2022/09/05 06:01:37;;;;;;;5.20;2.50;;;;;;;;;;4944390;28;21438;-79
2022/09/05 06:04:28;;;;;;;5.93;2.80;;;;;;;;;;4943509;28;20243;-80
2022/09/05 06:07:02;;;;;;;6.40;2.43;;;;;;;;;;4951939;28;20226;-80
2022/09/05 06:09:49;;;;;;;8.90;2.47;;;;;;;;;;4952082;28;20237;-79
2022/09/05 06:12:40;;;;;;;5.93;2.60;;;;;;;;;;4951030;28;20207;-80
2022/09/05 06:15:24;;;;;;;7.57;2.60;;;;;;;;;;4916351;28;20234;-79
2022/09/05 06:18:08;;;;;;;15.70;3.00;;;;;;;;;;4956723;28;20690;-80
2022/09/05 06:20:54;;;;;;;5.93;2.80;;;;;;;;;;4958462;28;20226;-79
2022/09/05 06:23:54;;;;;;;8.77;2.67;;;;;;;;;;4954324;28;20705;-79
2022/09/05 06:26:36;;;;;;;4.70;2.53;;;;;;;;;;4890739;29;20204;-79
2022/09/05 06:29:08;;;;;;;8.00;2.73;;;;;;;;;;4889517;29;20216;-78
2022/09/05 06:31:41;;;;;;;8.57;3.00;;;;;;;;;;4928919;28;20237;-79
2022/09/05 06:34:20;;;;;;;8.40;3.20;;;;;;;;;;4953390;28;20297;-79
2022/09/05 06:36:52;;;;;;;3.57;2.60;;;;;;;;;;4958471;28;20253;-79
2022/09/05 06:39:24;;;;;;;9.73;3.23;;;;;;;;;;4951993;28;20213;-79
2022/09/05 06:41:57;;;;;;;9.30;3.00;;;;;;;;;;4949997;28;20289;-80
2022/09/05 06:44:39;;;;;;;6.97;3.00;;;;;;;;;;4946682;28;20206;-80
2022/09/05 06:47:08;;;;;;;4.80;3.00;;;;;;;;;;4952465;28;20245;-79
2022/09/05 06:49:43;;;;;;;5.37;2.90;;;;;;;;;;4943389;28;20202;-79
2022/09/05 06:52:39;;;;;;;6.47;2.90;;;;;;;;;;4952356;28;20217;-79
2022/09/05 06:55:31;;;;;;;4.27;2.67;;;;;;;;;;4951150;28;20212;-79
2022/09/05 06:58:23;;;;;;;4.87;3.27;;;;;;;;;;4951219;28;20625;-79
2022/09/05 07:00:52;;;;;;;4.33;3.00;;;;;;;;;;4944894;28;20680;-79
2022/09/05 07:03:22;;;;;;;5.43;3.50;;;;;;;;;;4949275;28;20273;-79
2022/09/05 07:05:54;;;;;;;8.30;3.20;;;;;;;;;;4950876;28;20210;-79
2022/09/05 07:08:25;;;;;;;4.87;3.40;;;;;;;;;;4950628;28;20265;-79
2022/09/05 07:10:57;;;;;;;5.00;3.50;;;;;;;;;;4956356;28;20215;-79
2022/09/05 07:13:28;;;;;;;9.43;3.10;;;;;;;;;;4952694;28;20289;-79
2022/09/05 07:15:59;;;;;;;8.23;3.00;;;;;;;;;;4950061;28;20224;-79
2022/09/05 07:18:30;;;;;;;4.93;2.60;;;;;;;;;;4950665;28;20675;-79
2022/09/05 07:20:59;;;;;;;8.97;3.03;;;;;;;;;;4947613;28;20219;-79
2022/09/05 07:23:35;;;;;;;4.63;2.67;;;;;;;;;;4950105;28;20297;-79
2022/09/05 07:26:03;;;;;;;6.50;3.03;;;;;;;;;;4951967;28;20210;-79
2022/09/05 07:28:31;;;;;;;3.93;2.50;;;;;;;;;;4953541;28;20294;-79
2022/09/05 07:31:01;;;;;;;5.43;2.73;;;;;;;;;;4949758;28;20712;-79
2022/09/05 07:33:30;;;;;;;7.67;2.60;;;;;;;;;;4953374;28;20243;-79
2022/09/05 07:36:00;;;;;;;5.57;2.80;;;;;;;;;;4953086;28;20202;-78
2022/09/05 07:38:29;;;;;;;5.10;2.87;;;;;;;;;;4954388;28;20222;-78
2022/09/05 07:40:59;;;;;;;4.13;2.83;;;;;;;;;;4954867;28;20228;-79
2022/09/05 07:43:29;;;;;;;8.60;3.03;;;;;;;;;;4952330;29;20248;-79
2022/09/05 07:46:10;;;;;;;3.90;2.43;;;;;;;;;;4950746;28;20211;-79
2022/09/05 07:48:38;;;;;;;4.00;2.40;;;;;;;;;;4949059;28;20211;-79
2022/09/05 07:51:07;;;;;;;4.37;2.70;;;;;;;;;;4950654;28;20213;-79
2022/09/05 07:53:36;;;;;;;7.43;2.97;;;;;;;;;;4951481;28;20329;-79
2022/09/05 07:56:05;;;;;;;3.23;2.50;;;;;;;;;;4950370;28;20261;-78
2022/09/05 07:58:40;;;;;;;5.67;2.73;;;;;;;;;;4952412;28;20216;-79
2022/09/05 08:01:11;;;;;;;5.83;2.30;;;;;;;;;;4946747;28;20268;-78
2022/09/05 08:03:38;;;;;;;6.43;1.93;;;;;;;;;;4952627;28;20202;-79
2022/09/05 08:06:09;;;;;;;3.37;2.10;;;;;;;;;;4951710;28;20210;-78
2022/09/05 08:08:48;;;;;;;4.30;2.20;;;;;;;;;;4945262;28;20553;-79
2022/09/05 08:11:18;;;;;;;6.53;2.20;;;;;;;;;;4950722;28;20651;-79
2022/09/05 08:13:50;;;;;;;3.83;2.20;;;;;;;;;;4947968;28;20229;-79
2022/09/05 08:16:20;;;;;;;3.53;2.07;;;;;;;;;;4954834;28;20663;-80
2022/09/05 08:18:49;;;;;;;3.93;1.80;;;;;;;;;;4954068;28;20297;-79
2022/09/05 08:21:20;;;;;;;2.97;1.83;;;;;;;;;;4949520;28;20277;-78
2022/09/05 08:23:51;;;;;;;8.70;2.63;;;;;;;;;;4943986;28;20235;-77
2022/09/05 08:26:25;;;;;;;6.30;2.37;;;;;;;;;;4950177;28;20655;-78
2022/09/05 08:28:58;;;;;;;13.20;2.57;;;;;;;;;;4956285;28;20215;-79
2022/09/05 08:31:31;;;;;;;5.97;2.30;;;;;;;;;;4952372;28;20249;-78
2022/09/05 08:34:00;;;;;;;7.03;2.27;;;;;;;;;;4949504;28;20210;-79
2022/09/05 08:36:33;;;;;;;9.13;2.20;;;;;;;;;;4951484;28;20254;-78
2022/09/05 08:39:01;;;;;;;9.07;2.10;;;;;;;;;;4954156;28;20194;-78
2022/09/05 08:41:30;;;;;;;5.80;2.27;;;;;;;;;;4949260;28;20263;-78
2022/09/05 08:44:02;;;;;;;8.60;2.20;;;;;;;;;;4950595;28;20290;-78
2022/09/05 08:46:33;;;;;;;10.00;2.40;;;;;;;;;;4950199;28;20264;-77
2022/09/05 08:49:13;;;;;;;6.93;2.40;;;;;;;;;;4950562;28;20233;-77
2022/09/05 08:51:41;;;;;;;4.53;2.00;;;;;;;;;;4952551;28;20927;-78
2022/09/05 08:54:15;;;;;;;4.13;2.03;;;;;;;;;;4950830;28;20284;-76
2022/09/05 08:56:48;;;;;;;6.50;1.90;;;;;;;;;;4945730;28;20281;-78
2022/09/05 08:59:25;;;;;;;5.20;1.80;;;;;;;;;;4949134;28;20287;-78
2022/09/05 09:02:05;;;;;;;12.63;1.87;;;;;;;;;;4950967;28;20229;-78
2022/09/05 09:04:38;;;;;;;10.03;1.53;;;;;;;;;;4947802;28;20214;-78
2022/09/05 09:07:11;;;;;;;6.13;1.90;;;;;;;;;;4949837;29;20281;-78
2022/09/05 09:09:44;;;;;;;6.70;2.27;;;;;;;;;;4954219;28;20218;-78
2022/09/05 09:12:14;;;;;;;6.10;1.80;;;;;;;;;;4948619;28;20732;-77
2022/09/05 09:14:49;;;;;;;5.53;1.50;;;;;;;;;;4945884;28;20966;-78
2022/09/05 09:17:25;;;;;;;12.73;1.80;;;;;;;;;;4948678;28;20261;-78
2022/09/05 09:19:55;;;;;;;5.13;1.93;;;;;;;;;;4949264;28;20679;-77
2022/09/05 09:22:28;;;;;;;9.83;1.33;;;;;;;;;;4951203;28;20259;-78
2022/09/05 09:24:59;;;;;;;10.43;1.60;;;;;;;;;;4947439;28;20554;-77
2022/09/05 09:27:31;;;;;;;2.27;1.43;;;;;;;;;;4942923;28;20325;-78
2022/09/05 09:30:02;;;;;;;6.53;1.50;;;;;;;;;;4943675;28;20713;-78
2022/09/05 09:32:32;;;;;;;4.50;1.57;;;;;;;;;;4943754;28;20588;-78
2022/09/05 09:35:03;;;;;;;7.07;1.50;;;;;;;;;;4946376;28;20296;-78
2022/09/05 09:37:40;;;;;;;8.67;1.73;;;;;;;;;;4942406;28;20736;-77
2022/09/05 09:40:22;;;;;;;5.70;1.83;;;;;;;;;;4945621;28;20205;-78
2022/09/05 09:42:51;;;;;;;8.63;1.60;;;;;;;;;;4948334;28;20288;-77
2022/09/05 09:45:25;;;;;;;4.17;1.40;;;;;;;;;;4948559;28;20214;-78
2022/09/05 09:48:01;;;;;;;9.53;1.77;;;;;;;;;;4943313;28;20309;-77
2022/09/05 09:50:36;;;;;;;5.03;1.50;;;;;;;;;;4941832;28;20269;-78
2022/09/05 09:53:18;;;;;;;6.53;1.30;;;;;;;;;;4943455;28;20291;-79
2022/09/05 09:56:05;;;;;;;4.80;1.50;;;;;;;;;;4945709;28;20244;-78
2022/09/05 09:58:51;;;;;;;6.33;1.60;;;;;;;;;;4944354;28;20226;-78
2022/09/05 10:01:24;;;;;;;6.50;1.57;;;;;;;;;;4938243;28;21615;-77
2022/09/05 10:04:03;;;;;;;5.63;1.40;;;;;;;;;;4950276;28;20274;-78
2022/09/05 10:06:45;;;;;;;3.97;1.60;;;;;;;;;;4949498;28;20218;-78
2022/09/05 10:09:18;;;;;;;6.13;1.33;;;;;;;;;;4951174;28;20199;-78
2022/09/05 10:11:59;;;;;;;2.17;1.40;;;;;;;;;;4944100;28;20228;-77
2022/09/05 10:14:50;;;;;;;2.83;1.30;;;;;;;;;;4902212;28;20245;-77
2022/09/05 10:17:28;;;;;;;2.87;1.13;;;;;;;;;;4933078;28;20797;-77
2022/09/05 10:20:06;;;;;;;3.57;1.57;;;;;;;;;;4930414;29;20211;-77
2022/09/05 10:22:42;;;;;;;4.40;1.60;;;;;;;;;;4931244;29;20207;-78
2022/09/05 10:25:21;;;;;;;2.67;1.60;;;;;;;;;;4933124;29;20294;-78
2022/09/05 10:28:03;;;;;;;5.20;1.80;;;;;;;;;;4931215;29;20310;-78
2022/09/05 10:30:39;;;;;;;6.13;1.40;;;;;;;;;;4929245;29;20259;-77
2022/09/05 10:33:16;;;;;;;4.27;1.80;;;;;;;;;;4930757;29;20226;-79
2022/09/05 10:35:49;;;;;;;4.60;1.40;;;;;;;;;;4894368;28;20272;-79
2022/09/05 10:38:19;;;;;;;3.40;1.70;;;;;;;;;;4952404;28;20325;-79
2022/09/05 10:40:49;;;;;;;3.07;1.30;;;;;;;;;;4950187;28;20210;-78
2022/09/05 10:43:21;;;;;;;2.77;1.43;;;;;;;;;;4948322;28;20206;-78
2022/09/05 10:45:53;;;;;;;3.17;1.50;;;;;;;;;;4945112;28;20688;-78
2022/09/05 10:48:22;;;;;;;1.80;1.20;;;;;;;;;;4947881;28;20301;-77
2022/09/05 10:50:56;;;;;;;1.63;1.10;;;;;;;;;;4952553;28;20211;-78
2022/09/05 10:53:26;;;;;;;1.67;1.00;;;;;;;;;;4944981;28;20211;-77
2022/09/05 10:56:01;;;;;;;1.30;1.10;;;;;;;;;;4953501;28;20202;-78
2022/09/05 10:58:45;;;;;;;3.33;1.10;;;;;;;;;;4946455;28;20312;-77
2022/09/05 11:01:22;;;;;;;1.87;1.20;;;;;;;;;;4956335;28;20257;-78
2022/09/05 11:03:52;;;;;;;1.93;1.10;;;;;;;;;;4953437;28;20203;-79
2022/09/05 11:06:22;;;;;;;2.43;1.10;;;;;;;;;;4946092;28;20724;-79
2022/09/05 11:08:57;;;;;;;4.83;1.23;;;;;;;;;;4953882;28;20241;-77
2022/09/05 11:11:26;;;;;;;1.37;0.90;;;;;;;;;;4956812;28;20202;-79
2022/09/05 11:13:55;;;;;;;2.57;1.27;;;;;;;;;;4960919;28;20245;-78
2022/09/05 11:16:27;;;;;;;3.87;1.20;;;;;;;;;;4953267;28;20205;-78
2022/09/05 11:19:04;;;;;;;1.77;1.13;;;;;;;;;;4952103;28;20238;-79
2022/09/05 11:21:41;;;;;;;2.77;0.93;;;;;;;;;;4949645;28;20277;-78
2022/09/05 11:24:15;;;;;;;1.40;0.90;;;;;;;;;;4947527;28;20241;-78
2022/09/05 11:26:46;;;;;;;1.30;1.10;;;;;;;;;;4948449;28;20226;-77
2022/09/05 11:29:16;;;;;;;3.43;1.17;;;;;;;;;;4950391;28;20251;-78
2022/09/05 11:34:58;;;;;;;1.07;0.97;;;;;;;;;;4954802;28;20203;-79
2022/09/05 11:37:39;;;;;;;2.13;1.13;;;;;;;;;;4949049;28;20230;-77
2022/09/05 11:40:15;;;;;;;2.03;1.10;;;;;;;;;;4950956;28;20297;-77
2022/09/05 11:42:51;;;;;;;2.43;1.20;;;;;;;;;;4949299;28;20660;-76
2022/09/05 11:45:37;;;;;;;2.10;1.10;;;;;;;;;;4953334;28;20237;-76
2022/09/05 11:48:22;;;;;;;1.97;1.27;;;;;;;;;;4965041;28;21138;-77
2022/09/05 11:50:55;;;;;;;4.10;1.27;;;;;;;;;;4963185;28;20241;-77
2022/09/05 11:53:43;;;;;;;1.70;1.10;;;;;;;;;;4946359;28;20868;-77
2022/09/05 11:56:28;;;;;;;3.10;1.20;;;;;;;;;;4941445;28;20305;-77
2022/09/05 11:59:13;;;;;;;6.03;1.40;;;;;;;;;;4941701;28;20300;-77
2022/09/05 12:01:46;;;;;;;4.23;1.00;;;;;;;;;;4917648;28;20226;-77
2022/09/05 12:04:24;;;;;;;1.53;1.00;;;;;;;;;;4935520;28;20241;-76
2022/09/05 12:07:05;;;;;;;3.27;1.13;;;;;;;;;;4941048;28;20230;-77
2022/09/05 12:09:47;;;;;;;2.17;1.10;;;;;;;;;;4948785;28;20194;-77
2022/09/05 12:12:23;;;;;;;1.80;1.00;;;;;;;;;;4946103;28;20298;-78
2022/09/05 12:15:00;;;;;;;1.00;0.80;;;;;;;;;;4951435;28;20206;-78
2022/09/05 12:17:31;;;;;;;2.13;1.07;;;;;;;;;;4943450;28;20377;-78
2022/09/05 12:20:04;;;;;;;2.37;1.20;;;;;;;;;;4949412;28;20693;-77
2022/09/05 12:22:34;;;;;;;1.40;1.00;;;;;;;;;;4948278;28;20239;-77
2022/09/05 12:25:10;;;;;;;1.10;1.00;;;;;;;;;;4949017;28;20294;-78
2022/09/05 12:27:38;;;;;;;2.30;1.20;;;;;;;;;;4950492;28;20732;-77
2022/09/05 12:30:07;;;;;;;1.90;0.90;;;;;;;;;;4943754;28;20676;-77
2022/09/05 12:32:47;;;;;;;3.57;0.97;;;;;;;;;;4948146;28;21153;-77
2022/09/05 12:35:19;;;;;;;3.07;0.90;;;;;;;;;;4941649;28;20242;-77
2022/09/05 12:37:51;;;;;;;2.33;1.07;;;;;;;;;;4941808;28;20241;-77
2022/09/05 12:40:25;;;;;;;1.50;0.90;;;;;;;;;;4945408;28;20273;-78
2022/09/05 12:42:53;;;;;;;1.60;0.83;;;;;;;;;;4891924;28;20302;-78
2022/09/05 12:45:23;;;;;;;1.33;0.80;;;;;;;;;;4932726;28;20476;-78
2022/09/05 12:47:58;;;;;;;3.67;1.30;;;;;;;;;;4927734;29;20243;-78
2022/09/05 12:50:32;;;;;;;2.77;1.13;;;;;;;;;;4926429;29;20209;-78
2022/09/05 12:53:02;;;;;;;2.60;1.17;;;;;;;;;;4928285;29;20302;-78
2022/09/05 12:55:33;;;;;;;3.60;1.13;;;;;;;;;;4929450;29;20215;-79
2022/09/05 12:58:01;;;;;;;2.70;1.20;;;;;;;;;;4928962;29;20255;-78
2022/09/05 13:00:30;;;;;;;4.60;1.40;;;;;;;;;;4924605;29;20211;-78
2022/09/05 13:03:00;;;;;;;2.63;1.03;;;;;;;;;;4929882;29;20766;-78
2022/09/05 13:05:45;;;;;;;1.67;1.20;;;;;;;;;;4929043;28;20251;-77
2022/09/05 13:08:20;;;;;;;1.77;1.10;;;;;;;;;;4936105;29;20274;-77
2022/09/05 13:10:50;;;;;;;1.60;1.20;;;;;;;;;;4931999;29;20216;-78
2022/09/05 13:13:23;;;;;;;3.63;1.20;;;;;;;;;;4932344;29;20199;-77
2022/09/05 13:15:52;;;;;;;3.17;1.10;;;;;;;;;;4926004;29;20557;-78
2022/09/05 13:18:22;;;;;;;2.20;1.17;;;;;;;;;;4927334;29;20618;-78
2022/09/05 13:21:00;;;;;;;4.90;1.30;;;;;;;;;;4926617;29;20245;-76
2022/09/05 13:23:29;;;;;;;3.10;1.40;;;;;;;;;;4928178;29;20729;-77
2022/09/05 13:25:57;;;;;;;2.10;1.20;;;;;;;;;;4925618;29;20221;-78
2022/09/05 13:28:26;;;;;;;1.30;1.00;;;;;;;;;;4922742;29;20684;-76
2022/09/05 13:30:55;;;;;;;5.43;1.10;;;;;;;;;;4927135;29;20214;-76
2022/09/05 13:33:26;;;;;;;2.90;1.00;;;;;;;;;;4922092;29;21095;-76
2022/09/05 13:36:04;;;;;;;2.40;1.10;;;;;;;;;;4927581;28;20218;-77
2022/09/05 13:38:41;;;;;;;5.63;1.80;;;;;;;;;;4923261;29;20572;-76
2022/09/05 13:41:12;;;;;;;1.73;1.30;;;;;;;;;;4918952;29;20644;-76
2022/09/05 13:43:39;;;;;;;1.90;1.30;;;;;;;;;;4916940;29;20233;-78
2022/09/05 13:46:10;;;;;;;2.37;1.37;;;;;;;;;;4922727;29;20208;-76
2022/09/05 13:48:43;;;;;;;3.70;1.00;;;;;;;;;;4925807;29;20211;-76
2022/09/05 13:51:27;;;;;;;3.67;1.37;;;;;;;;;;4929663;29;20295;-77
2022/09/05 13:54:03;;;;;;;2.90;1.27;;;;;;;;;;4933731;29;20204;-78
2022/09/05 13:56:34;;;;;;;2.17;1.30;;;;;;;;;;4931105;29;20424;-78
2022/09/05 13:59:07;;;;;;;4.20;1.20;;;;;;;;;;4927298;29;20210;-77
2022/09/05 14:01:42;;;;;;;3.80;1.10;;;;;;;;;;4924654;29;20217;-77
2022/09/05 14:04:31;;;;;;;5.70;1.03;;;;;;;;;;4924830;29;20211;-77
2022/09/05 14:07:18;;;;;;;2.03;1.23;;;;;;;;;;4934404;29;20228;-77
2022/09/05 14:10:05;;;;;;;2.80;1.20;;;;;;;;;;4934050;29;20701;-76
2022/09/05 14:12:35;;;;;;;2.27;1.30;;;;;;;;;;4930513;29;20206;-77
2022/09/05 14:15:07;;;;;;;3.13;1.37;;;;;;;;;;4928679;29;20208;-76
2022/09/05 14:17:38;;;;;;;1.50;1.00;;;;;;;;;;4933594;29;20233;-77
2022/09/05 14:22:57;;;;;;;2.97;1.07;;;;;;;;;;4918220;29;21623;-77
2022/09/05 14:25:26;;;;;;;2.13;1.30;;;;;;;;;;4935482;29;20215;-77
2022/09/05 14:27:54;;;;;;;3.77;1.40;;;;;;;;;;4932827;29;20229;-77
2022/09/05 14:30:35;;;;;;;1.83;0.90;;;;;;;;;;4934128;29;20216;-77
2022/09/05 14:33:08;;;;;;;3.67;1.20;;;;;;;;;;4929523;29;20243;-75
2022/09/05 14:35:40;;;;;;;4.60;1.00;;;;;;;;;;4936086;29;20203;-75
2022/09/05 14:38:12;;;;;;;3.53;1.27;;;;;;;;;;4932113;29;20321;-77
2022/09/05 14:40:58;;;;;;;5.40;1.10;;;;;;;;;;4938897;29;20207;-78
2022/09/05 14:43:42;;;;;;;3.63;1.20;;;;;;;;;;4937461;29;20614;-76
2022/09/05 14:46:28;;;;;;;4.53;1.37;;;;;;;;;;4926278;29;20790;-76
2022/09/05 14:49:09;;;;;;;2.10;1.03;;;;;;;;;;4920215;29;20214;-76
2022/09/05 14:51:46;;;;;;;1.77;1.20;;;;;;;;;;4925432;29;20199;-76
2022/09/05 14:54:14;;;;;;;3.33;1.33;;;;;;;;;;4921647;29;20671;-77
2022/09/05 15:00:21;;;;;;;2.10;1.20;;;;;;;;;;4926584;29;20279;-78
2022/09/05 15:02:50;;;;;;;2.93;1.13;;;;;;;;;;4927586;29;20569;-77
2022/09/05 15:05:20;;;;;;;2.70;1.23;;;;;;;;;;4928124;29;20209;-77
2022/09/05 15:07:49;;;;;;;3.63;1.10;;;;;;;;;;4931655;29;20805;-77
2022/09/05 15:10:31;;;;;;;2.13;1.10;;;;;;;;;;4933609;29;20204;-76
2022/09/05 15:13:00;;;;;;;4.23;1.30;;;;;;;;;;4928536;29;20200;-77
2022/09/05 15:15:30;;;;;;;4.33;1.20;;;;;;;;;;4931330;29;20608;-77
2022/09/05 15:17:58;;;;;;;1.20;1.00;;;;;;;;;;4928368;29;20232;-77
2022/09/05 15:20:30;;;;;;;4.87;1.40;;;;;;;;;;4928330;29;20204;-78
2022/09/05 15:22:59;;;;;;;2.10;1.20;;;;;;;;;;4928210;29;20322;-76
2022/09/05 15:25:27;;;;;;;5.60;1.30;;;;;;;;;;4932682;29;20710;-77
2022/09/05 15:27:54;;;;;;;5.47;1.13;;;;;;;;;;4925198;29;20314;-78
2022/09/05 15:30:27;;;;;;;1.60;1.13;;;;;;;;;;4928472;29;20218;-77
2022/09/05 15:33:09;;;;;;;3.10;1.10;;;;;;;;;;4927748;29;20201;-77
2022/09/05 15:35:38;;;;;;;2.30;1.13;;;;;;;;;;4931650;29;20207;-77
2022/09/05 15:41:18;;;;;;;2.43;1.10;;;;;;;;;;5106038;27;21411;-77